createdAt,value
2022-09-10T00:01:18.516Z,75.23
2022-09-10T00:03:45.900Z,75.40
2022-09-10T00:06:12.604Z,75.32
2022-09-10T00:08:40.011Z,75.23
2022-09-10T00:11:10.393Z,75.22
2022-09-10T00:13:39.386Z,75.31
2022-09-10T00:16:10.879Z,75.40
2022-09-10T00:18:39.123Z,75.48
2022-09-10T00:21:10.424Z,75.66
2022-09-10T00:23:37.426Z,75.19
2022-09-10T00:26:14.840Z,75.15
2022-09-10T00:28:43.042Z,75.24
2022-09-10T00:31:10.935Z,75.77
2022-09-10T00:33:37.806Z,75.67
2022-09-10T00:36:15.674Z,75.60
2022-09-10T00:38:42.173Z,75.56
2022-09-10T00:41:08.704Z,75.64
2022-09-10T00:44:07.598Z,75.64
2022-09-10T00:46:51.343Z,75.47
2022-09-10T00:49:40.861Z,75.60
2022-09-10T00:52:07.803Z,75.64
2022-09-10T00:54:37.155Z,75.39
2022-09-10T00:57:12.382Z,75.40
2022-09-10T00:59:46.402Z,75.14
2022-09-10T01:02:14.817Z,75.22
2022-09-10T01:04:42.872Z,75.31
2022-09-10T01:07:12.342Z,75.16
2022-09-10T01:09:40.676Z,75.32
2022-09-10T01:12:40.143Z,75.21
2022-09-10T01:15:28.764Z,75.04
2022-09-10T01:18:41.290Z,75.57
2022-09-10T01:21:46.755Z,75.95
2022-09-10T01:24:38.958Z,76.00
2022-09-10T01:27:26.594Z,76.22
2022-09-10T01:30:04.500Z,75.75
2022-09-10T01:32:54.527Z,75.50
2022-09-10T01:35:50.354Z,76.04
2022-09-10T01:38:38.763Z,76.03
2022-09-10T01:41:05.826Z,75.64
2022-09-10T01:43:33.171Z,75.42
2022-09-10T01:46:24.583Z,75.54
2022-09-10T01:49:27.512Z,75.42
2022-09-10T01:52:26.203Z,75.59
2022-09-10T01:54:52.531Z,75.26
2022-09-10T01:57:21.730Z,74.85
2022-09-10T02:00:08.650Z,74.94
2022-09-10T02:03:06.215Z,75.04
2022-09-10T02:05:37.160Z,75.10
2022-09-10T02:08:17.203Z,74.92
2022-09-10T02:10:59.191Z,75.05
2022-09-10T02:13:29.765Z,74.88
2022-09-10T02:15:56.654Z,74.87
2022-09-10T02:18:25.542Z,75.35
2022-09-10T02:20:56.013Z,75.26
2022-09-10T02:23:33.050Z,75.38
2022-09-10T02:25:59.528Z,75.42
2022-09-10T02:28:26.858Z,75.39
2022-09-10T02:30:53.311Z,75.06
2022-09-10T02:33:19.746Z,75.31
2022-09-10T02:35:47.725Z,75.13
2022-09-10T02:38:14.616Z,74.98
2022-09-10T02:40:43.097Z,75.22
2022-09-10T02:43:09.611Z,74.91
2022-09-10T02:45:37.458Z,74.87
2022-09-10T02:48:04.255Z,74.73
2022-09-10T02:50:31.948Z,74.97
2022-09-10T02:52:58.375Z,75.11
2022-09-10T02:55:25.231Z,74.86
2022-09-10T02:57:51.685Z,75.01
2022-09-10T03:00:20.133Z,75.15
2022-09-10T03:02:50.540Z,75.23
2022-09-10T03:05:17.880Z,75.22
2022-09-10T03:07:44.776Z,74.94
2022-09-10T03:10:11.543Z,74.99
2022-09-10T03:12:39.071Z,74.85
2022-09-10T03:15:06.852Z,74.99
2022-09-10T03:17:33.286Z,74.97
2022-09-10T03:19:59.873Z,74.82
2022-09-10T03:22:26.318Z,75.20
2022-09-10T03:24:53.137Z,75.18
2022-09-10T03:27:20.675Z,75.07
2022-09-10T03:29:47.441Z,75.06
2022-09-10T03:32:13.859Z,75.07
2022-09-10T03:34:40.299Z,75.19
2022-09-10T03:37:06.913Z,75.45
2022-09-10T03:39:33.388Z,75.49
2022-09-10T03:41:59.871Z,75.33
2022-09-10T03:44:26.332Z,75.47
2022-09-10T03:46:52.814Z,75.64
2022-09-10T03:49:19.286Z,75.69
2022-09-10T03:51:45.976Z,75.64
2022-09-10T03:54:13.840Z,75.62
2022-09-10T03:56:40.468Z,75.67
2022-09-10T03:59:07.039Z,75.41
2022-09-10T04:01:33.583Z,75.52
2022-09-10T04:04:00.052Z,75.30
2022-09-10T04:06:26.547Z,75.54
2022-09-10T04:08:53.009Z,75.37
2022-09-10T04:11:20.335Z,75.12
2022-09-10T04:13:48.402Z,75.22
2022-09-10T04:16:16.543Z,75.35
2022-09-10T04:18:43.092Z,75.51
2022-09-10T04:21:09.710Z,75.37
2022-09-10T04:23:36.211Z,75.16
2022-09-10T04:26:14.414Z,75.30
2022-09-10T04:28:41.678Z,75.53
2022-09-10T04:31:08.256Z,75.64
2022-09-10T04:33:34.965Z,75.74
2022-09-10T04:36:02.034Z,75.92
2022-09-10T04:38:30.286Z,75.75
2022-09-10T04:40:58.375Z,75.67
2022-09-10T04:43:25.839Z,75.50
2022-09-10T04:45:55.789Z,75.18
2022-09-10T04:48:23.603Z,75.30
2022-09-10T04:51:14.785Z,75.23
2022-09-10T04:53:37.851Z,75.48
2022-09-10T04:56:04.436Z,75.40
2022-09-10T04:58:34.260Z,75.52
2022-09-10T05:01:04.508Z,75.80
2022-09-10T05:03:31.019Z,75.72
2022-09-10T05:05:57.488Z,75.74
2022-09-10T05:08:24.020Z,75.30
2022-09-10T05:10:50.546Z,75.31
2022-09-10T05:13:17.631Z,75.08
2022-09-10T05:15:44.220Z,75.51
2022-09-10T05:18:10.869Z,75.71
2022-09-10T05:20:37.682Z,75.73
2022-09-10T05:23:04.289Z,75.77
2022-09-10T05:25:30.805Z,76.13
2022-09-10T05:27:57.290Z,75.87
2022-09-10T05:30:23.723Z,75.50
2022-09-10T05:32:53.448Z,75.63
2022-09-10T05:35:20.239Z,75.50
2022-09-10T05:37:46.683Z,75.45
2022-09-10T05:40:16.238Z,75.09
2022-09-10T05:42:42.927Z,75.09
2022-09-10T05:45:10.191Z,75.12
2022-09-10T05:47:37.883Z,74.96
2022-09-10T05:50:06.606Z,74.97
2022-09-10T05:52:33.136Z,75.12
2022-09-10T05:54:59.940Z,75.12
2022-09-10T05:57:26.673Z,75.08
2022-09-10T05:59:53.819Z,74.98
2022-09-10T06:02:24.118Z,75.20
2022-09-10T06:04:50.917Z,75.15
2022-09-10T06:07:17.828Z,75.12
2022-09-10T06:09:44.349Z,75.09
2022-09-10T06:12:10.802Z,75.16
2022-09-10T06:14:37.354Z,75.01
2022-09-10T06:17:04.330Z,75.20
2022-09-10T06:19:30.779Z,75.17
2022-09-10T06:21:57.436Z,75.21
2022-09-10T06:24:24.458Z,74.97
2022-09-10T06:26:50.960Z,74.92
2022-09-10T06:29:19.150Z,74.99
2022-09-10T06:31:47.446Z,75.08
2022-09-10T06:34:14.178Z,74.77
2022-09-10T06:36:41.383Z,74.31
2022-09-10T06:39:07.936Z,74.53
2022-09-10T06:41:34.573Z,74.41
2022-09-10T06:44:01.250Z,74.53
2022-09-10T06:49:14.998Z,74.87
2022-09-10T06:51:42.378Z,74.59
2022-09-10T06:54:08.899Z,74.73
2022-09-10T06:56:35.365Z,74.51
2022-09-10T06:59:02.770Z,74.54
2022-09-10T07:01:29.785Z,74.52
2022-09-10T07:03:59.320Z,74.49
2022-09-10T07:06:28.254Z,74.36
2022-09-10T07:08:58.487Z,74.32
2022-09-10T07:11:28.618Z,74.42
2022-09-10T07:13:55.136Z,74.40
2022-09-10T07:16:25.599Z,74.43
2022-09-10T07:18:55.723Z,74.33
2022-09-10T07:21:25.246Z,73.89
2022-09-10T07:23:57.564Z,73.83
2022-09-10T07:26:24.658Z,73.81
2022-09-10T07:28:52.098Z,73.74
2022-09-10T07:31:27.248Z,73.34
2022-09-10T07:33:55.166Z,73.65
2022-09-10T07:36:21.894Z,73.47
2022-09-10T07:39:03.191Z,73.32
2022-09-10T07:41:33.852Z,73.31
2022-09-10T07:44:00.328Z,72.88
2022-09-10T07:46:28.258Z,72.96
2022-09-10T07:48:58.276Z,72.60
2022-09-10T07:51:27.762Z,72.47
2022-09-10T07:53:58.967Z,72.52
2022-09-10T07:56:25.693Z,72.47
2022-09-10T07:58:53.833Z,72.40
2022-09-10T08:01:20.787Z,72.27
2022-09-10T08:03:47.373Z,72.18
2022-09-10T08:06:14.631Z,72.00
2022-09-10T08:08:42.658Z,71.85
2022-09-10T08:11:17.276Z,71.65
2022-09-10T08:13:47.099Z,71.69
2022-09-10T08:16:20.556Z,71.65
2022-09-10T08:18:48.549Z,71.53
2022-09-10T08:21:17.515Z,71.59
2022-09-10T08:23:50.901Z,71.36
2022-09-10T08:26:18.540Z,71.50
2022-09-10T08:28:45.027Z,71.59
2022-09-10T08:31:12.961Z,71.46
2022-09-10T08:33:40.498Z,71.56
2022-09-10T08:36:12.012Z,71.55
2022-09-10T08:38:40.822Z,71.51
2022-09-10T08:41:23.462Z,71.25
2022-09-10T08:44:03.258Z,71.02
2022-09-10T08:47:00.247Z,70.67
2022-09-10T08:49:51.167Z,70.90
2022-09-10T08:52:43.747Z,70.28
2022-09-10T08:55:22.008Z,69.66
2022-09-10T08:58:13.251Z,69.97
2022-09-10T09:00:45.199Z,69.89
2022-09-10T09:03:27.764Z,69.15
2022-09-10T09:06:00.547Z,69.00
2022-09-10T09:08:40.983Z,69.29
2022-09-10T09:11:49.928Z,69.08
2022-09-10T09:15:08.976Z,69.32
2022-09-10T09:18:18.469Z,69.08
2022-09-10T09:20:54.716Z,69.62
2022-09-10T09:23:51.793Z,69.48
2022-09-10T09:26:35.850Z,69.93
2022-09-10T09:29:12.719Z,70.00
2022-09-10T09:31:46.987Z,70.07
2022-09-10T09:34:50.938Z,70.35
2022-09-10T09:37:26.875Z,70.55
2022-09-10T09:40:13.389Z,70.82
2022-09-10T09:42:44.341Z,70.99
2022-09-10T09:45:28.194Z,71.03
2022-09-10T09:47:55.747Z,70.60
2022-09-10T09:50:22.912Z,70.41
2022-09-10T09:52:56.238Z,70.60
2022-09-10T09:55:40.119Z,70.55
2022-09-10T09:58:21.809Z,70.07
2022-09-10T10:01:03.470Z,69.93
2022-09-10T10:03:35.940Z,69.94
2022-09-10T10:06:10.183Z,69.94
2022-09-10T10:08:44.979Z,69.06
2022-09-10T10:11:21.176Z,68.84
2022-09-10T10:13:52.862Z,68.73
2022-09-10T10:16:37.770Z,68.99
2022-09-10T10:19:37.393Z,68.01
2022-09-10T10:22:18.691Z,69.36
2022-09-10T10:24:48.647Z,69.35
2022-09-10T10:27:23.088Z,69.35
2022-09-10T10:30:01.472Z,69.42
2022-09-10T10:32:42.339Z,69.41
2022-09-10T10:35:46.350Z,69.60
2022-09-10T10:38:37.624Z,69.56
2022-09-10T10:41:16.226Z,70.02
2022-09-10T10:44:05.584Z,70.18
2022-09-10T10:46:56.836Z,70.91
2022-09-10T10:49:59.919Z,71.14
2022-09-10T10:52:57.126Z,71.25
2022-09-10T10:55:33.570Z,70.89
2022-09-10T10:58:02.768Z,72.09
2022-09-10T11:00:45.976Z,71.25
2022-09-10T11:03:27.243Z,70.69
2022-09-10T11:06:20.565Z,70.85
2022-09-10T11:09:14.538Z,69.96
2022-09-10T11:11:56.224Z,70.00
2022-09-10T11:14:35.893Z,69.91
2022-09-10T11:17:15.036Z,69.74
2022-09-10T11:20:31.497Z,69.52
2022-09-10T11:23:20.718Z,70.40
2022-09-10T11:26:10.673Z,70.88
2022-09-10T11:28:55.841Z,70.27
2022-09-10T11:31:41.934Z,70.69
2022-09-10T11:34:35.187Z,70.35
2022-09-10T11:37:52.369Z,69.90
2022-09-10T11:40:40.982Z,70.14
2022-09-10T11:43:19.612Z,70.34
2022-09-10T11:46:00.880Z,69.95
2022-09-10T11:48:41.424Z,69.83
2022-09-10T11:51:24.208Z,69.50
2022-09-10T11:53:51.238Z,69.19
2022-09-10T11:56:53.632Z,68.20
2022-09-10T11:59:37.224Z,67.57
2022-09-10T12:02:53.337Z,67.67
2022-09-10T12:05:46.748Z,68.46
2022-09-10T12:08:40.602Z,68.38
2022-09-10T12:11:36.766Z,68.45
2022-09-10T12:14:30.628Z,69.02
2022-09-10T12:17:08.660Z,69.22
2022-09-10T12:19:46.131Z,68.87
2022-09-10T12:22:36.836Z,68.67
2022-09-10T12:25:05.938Z,68.56
2022-09-10T12:27:59.067Z,67.71
2022-09-10T12:30:27.374Z,68.36
2022-09-10T12:32:59.124Z,68.34
2022-09-10T12:35:31.340Z,67.62
2022-09-10T12:38:45.469Z,66.67
2022-09-10T12:41:20.925Z,67.07
2022-09-10T12:43:47.285Z,67.04
2022-09-10T12:46:13.678Z,67.38
2022-09-10T12:48:56.555Z,66.63
2022-09-10T12:51:56.627Z,67.32
2022-09-10T12:54:52.495Z,67.06
2022-09-10T12:57:50.627Z,67.12
2022-09-10T13:00:22.130Z,67.48
2022-09-10T13:02:58.638Z,67.85
2022-09-10T13:05:51.465Z,67.71
2022-09-10T13:08:33.789Z,68.02
2022-09-10T13:11:01.212Z,68.44
2022-09-10T13:14:02.233Z,67.95
2022-09-10T13:16:28.810Z,68.17
2022-09-10T13:19:13.244Z,67.11
2022-09-10T13:21:42.661Z,66.90
2022-09-10T13:24:34.389Z,66.95
2022-09-10T13:27:13.028Z,67.27
2022-09-10T13:29:49.378Z,67.36
2022-09-10T13:32:49.450Z,66.72
2022-09-10T13:35:21.747Z,67.33
2022-09-10T13:38:03.649Z,67.38
2022-09-10T13:40:45.463Z,67.47
2022-09-10T13:43:26.845Z,67.58
2022-09-10T13:46:00.491Z,67.37
2022-09-10T13:48:33.024Z,66.90
2022-09-10T13:51:21.059Z,67.15
2022-09-10T13:53:51.390Z,67.51
2022-09-10T13:56:29.523Z,67.12
2022-09-10T13:59:03.010Z,67.20
2022-09-10T14:01:51.359Z,67.90
2022-09-10T14:04:44.773Z,67.67
2022-09-10T14:07:28.608Z,67.98
2022-09-10T14:10:05.931Z,67.50
2022-09-10T14:12:35.838Z,68.12
2022-09-10T14:15:06.332Z,68.36
2022-09-10T14:17:43.621Z,68.91
2022-09-10T14:20:29.383Z,69.49
2022-09-10T14:23:03.813Z,69.92
2022-09-10T14:25:37.497Z,70.76
2022-09-10T14:28:15.866Z,71.46
2022-09-10T14:30:48.788Z,71.21
2022-09-10T14:33:31.325Z,71.11
2022-09-10T14:35:58.974Z,71.58
2022-09-10T14:38:38.042Z,71.59
2022-09-10T14:41:18.535Z,71.53
2022-09-10T14:43:45.593Z,71.56
2022-09-10T14:46:51.457Z,71.44
2022-09-10T14:49:26.541Z,71.69
2022-09-10T14:51:53.628Z,71.78
2022-09-10T14:54:20.099Z,72.07
2022-09-10T14:56:48.634Z,72.22
2022-09-10T14:59:38.474Z,72.59
2022-09-10T15:02:21.644Z,72.42
2022-09-10T15:04:48.866Z,72.40
2022-09-10T15:07:15.486Z,72.08
2022-09-10T15:09:42.016Z,71.90
2022-09-10T15:12:25.383Z,71.64
2022-09-10T15:14:52.158Z,71.66
2022-09-10T15:17:18.968Z,72.17
2022-09-10T15:19:49.840Z,72.20
2022-09-10T15:22:36.710Z,72.43
2022-09-10T15:25:11.660Z,73.13
2022-09-10T15:27:38.720Z,72.93
2022-09-10T15:30:06.684Z,72.69
2022-09-10T15:32:33.234Z,72.76
2022-09-10T15:34:59.736Z,72.65
2022-09-10T15:37:27.035Z,72.53
2022-09-10T15:39:54.435Z,72.78
2022-09-10T15:42:20.993Z,73.11
2022-09-10T15:44:47.464Z,72.75
2022-09-10T15:47:13.943Z,72.53
2022-09-10T15:49:40.404Z,72.39
2022-09-10T15:52:06.885Z,72.42
2022-09-10T15:54:33.836Z,72.07
2022-09-10T15:57:01.145Z,72.06
2022-09-10T15:59:28.364Z,72.02
2022-09-10T16:01:54.832Z,71.98
2022-09-10T16:04:21.391Z,71.93
2022-09-10T16:06:47.873Z,72.04
2022-09-10T16:09:14.661Z,72.41
2022-09-10T16:11:42.646Z,72.49
2022-09-10T16:14:14.165Z,72.95
2022-09-10T16:16:40.973Z,73.08
2022-09-10T16:19:09.108Z,73.21
2022-09-10T16:21:37.775Z,73.14
2022-09-10T16:24:05.771Z,73.15
2022-09-10T16:26:39.638Z,73.03
2022-09-10T16:29:13.869Z,73.05
2022-09-10T16:31:41.570Z,72.93
2022-09-10T16:34:13.325Z,73.06
2022-09-10T16:36:40.271Z,73.38
2022-09-10T16:39:14.890Z,73.22
2022-09-10T16:41:44.985Z,73.33
2022-09-10T16:44:14.654Z,73.32
2022-09-10T16:46:42.515Z,73.47
2022-09-10T16:49:14.259Z,73.39
2022-09-10T16:51:42.845Z,73.58
2022-09-10T16:54:11.631Z,73.71
2022-09-10T16:56:45.553Z,73.42
2022-09-10T16:59:20.201Z,73.49
2022-09-10T17:01:48.530Z,73.87
2022-09-10T17:04:27.766Z,73.57
2022-09-10T17:06:57.289Z,73.38
2022-09-10T17:09:24.757Z,73.41
2022-09-10T17:11:51.211Z,73.75
2022-09-10T17:14:17.632Z,73.79
2022-09-10T17:16:44.753Z,73.88
2022-09-10T17:19:15.466Z,74.16
2022-09-10T17:21:47.221Z,74.13
2022-09-10T17:24:14.021Z,74.02
2022-09-10T17:26:41.702Z,73.84
2022-09-10T17:29:12.649Z,73.94
2022-09-10T17:31:39.551Z,73.59
2022-09-10T17:34:06.945Z,73.63
2022-09-10T17:36:34.808Z,73.44
2022-09-10T17:39:01.366Z,73.52
2022-09-10T17:41:29.416Z,73.53
2022-09-10T17:43:57.966Z,73.84
2022-09-10T17:46:24.766Z,74.01
2022-09-10T17:48:53.410Z,74.02
2022-09-10T17:51:23.906Z,73.83
2022-09-10T17:53:53.554Z,73.95
2022-09-10T17:56:20.153Z,74.46
2022-09-10T17:58:47.915Z,74.75
2022-09-10T18:01:23.755Z,74.32
2022-09-10T18:03:51.918Z,74.48
2022-09-10T18:06:19.238Z,74.58
2022-09-10T18:08:45.717Z,74.54
2022-09-10T18:11:20.233Z,74.55
2022-09-10T18:13:52.009Z,74.85
2022-09-10T18:16:23.739Z,74.86
2022-09-10T18:18:53.863Z,74.87
2022-09-10T18:21:25.833Z,74.87
2022-09-10T18:24:09.433Z,74.69
2022-09-10T18:26:40.962Z,75.07
2022-09-10T18:29:15.765Z,74.98
2022-09-10T18:31:49.441Z,74.76
2022-09-10T18:34:23.213Z,74.83
2022-09-10T18:36:55.582Z,74.65
2022-09-10T18:39:24.795Z,74.93
2022-09-10T18:41:52.083Z,75.19
2022-09-10T18:44:27.615Z,74.96
2022-09-10T18:46:54.661Z,75.26
2022-09-10T18:49:26.624Z,74.92
2022-09-10T18:51:56.049Z,75.18
2022-09-10T18:54:24.300Z,75.09
2022-09-10T18:56:51.115Z,75.30
2022-09-10T18:59:23.007Z,75.23
2022-09-10T19:01:53.648Z,75.30
2022-09-10T19:04:27.408Z,75.09
2022-09-10T19:06:54.609Z,75.38
2022-09-10T19:09:27.540Z,75.16
2022-09-10T19:11:56.295Z,75.11
2022-09-10T19:14:31.828Z,75.13
2022-09-10T19:17:00.666Z,75.11
2022-09-10T19:19:31.629Z,75.58
2022-09-10T19:22:06.946Z,75.43
2022-09-10T19:27:21.031Z,75.57
2022-09-10T19:29:49.507Z,75.26
2022-09-10T19:32:16.893Z,75.07
2022-09-10T19:34:43.438Z,75.26
2022-09-10T19:37:10.137Z,75.26
2022-09-10T19:39:36.789Z,75.27
2022-09-10T19:42:03.471Z,75.02
2022-09-10T19:44:29.934Z,74.92
2022-09-10T19:46:56.392Z,74.53
2022-09-10T19:49:22.845Z,74.23
2022-09-10T19:51:49.352Z,74.41
2022-09-10T19:54:16.358Z,74.48
2022-09-10T19:56:43.647Z,74.38
2022-09-10T19:59:10.489Z,74.46
2022-09-10T20:01:42.119Z,74.26
2022-09-10T20:04:11.580Z,74.44
2022-09-10T20:06:39.180Z,74.97
2022-09-10T20:09:08.538Z,74.94
2022-09-10T20:11:35.773Z,75.26
2022-09-10T20:14:09.426Z,75.26
2022-09-10T20:16:39.190Z,75.20
2022-09-10T20:19:07.139Z,75.04
2022-09-10T20:21:35.625Z,74.56
2022-09-10T20:24:06.888Z,74.44
2022-09-10T20:26:40.986Z,74.20
2022-09-10T20:29:12.349Z,74.27
2022-09-10T20:31:41.035Z,74.51
2022-09-10T20:34:18.371Z,74.61
2022-09-10T20:36:45.192Z,74.81
2022-09-10T20:39:15.242Z,74.82
2022-09-10T20:41:43.629Z,74.96
2022-09-10T20:44:14.179Z,75.20
2022-09-10T20:46:41.973Z,75.04
2022-09-10T20:49:12.000Z,74.96
2022-09-10T20:51:40.356Z,74.78
2022-09-10T20:54:11.675Z,74.72
2022-09-10T20:56:38.358Z,74.64
2022-09-10T20:59:04.810Z,74.61
2022-09-10T21:01:31.346Z,74.95
2022-09-10T21:04:01.175Z,75.18
2022-09-10T21:06:31.456Z,74.93
2022-09-10T21:08:59.461Z,74.94
2022-09-10T21:11:30.634Z,74.64
2022-09-10T21:14:01.777Z,74.90
2022-09-10T21:16:38.563Z,75.08
2022-09-10T21:19:10.241Z,75.16
2022-09-10T21:21:42.053Z,74.89
2022-09-10T21:24:22.316Z,74.64
2022-09-10T21:26:50.107Z,74.98
2022-09-10T21:29:20.510Z,75.15
2022-09-10T21:31:50.364Z,74.71
2022-09-10T21:34:17.317Z,74.99
2022-09-10T21:36:43.986Z,74.74
2022-09-10T21:39:16.514Z,74.86
2022-09-10T21:41:47.148Z,74.89
2022-09-10T21:44:20.288Z,74.46
2022-09-10T21:46:48.519Z,74.37
2022-09-10T21:49:16.335Z,74.19
2022-09-10T21:51:43.269Z,74.20
2022-09-10T21:54:22.056Z,74.15
2022-09-10T21:56:50.446Z,74.20
2022-09-10T21:59:18.297Z,74.39
2022-09-10T22:01:46.794Z,74.45
2022-09-10T22:04:18.869Z,74.53
2022-09-10T22:06:48.386Z,74.72
2022-09-10T22:09:16.028Z,74.72
2022-09-10T22:11:50.146Z,74.64
2022-09-10T22:14:23.464Z,74.61
2022-09-10T22:16:51.285Z,74.82
2022-09-10T22:19:24.264Z,74.80
2022-09-10T22:21:53.808Z,75.01
2022-09-10T22:24:20.337Z,75.55
2022-09-10T22:26:47.313Z,75.50
2022-09-10T22:29:17.843Z,75.14
2022-09-10T22:31:44.926Z,75.23
2022-09-10T22:34:14.462Z,74.98
2022-09-10T22:36:44.199Z,74.91
2022-09-10T22:39:17.852Z,74.67
2022-09-10T22:41:45.957Z,74.92
2022-09-10T22:44:13.164Z,75.11
2022-09-10T22:46:41.213Z,75.00
2022-09-10T22:49:08.666Z,75.19
2022-09-10T22:51:40.724Z,75.44
2022-09-10T22:54:08.331Z,75.79
2022-09-10T22:56:38.084Z,75.87
2022-09-10T22:59:06.596Z,75.66
2022-09-10T23:01:38.053Z,75.39
2022-09-10T23:04:07.610Z,75.33
2022-09-10T23:06:37.411Z,75.88
2022-09-10T23:09:12.349Z,75.53
2022-09-10T23:11:40.335Z,75.41
2022-09-10T23:14:12.891Z,75.03
2022-09-10T23:16:48.261Z,75.38
2022-09-10T23:19:19.059Z,75.52
2022-09-10T23:21:49.426Z,76.22
2022-09-10T23:24:20.282Z,76.27
2022-09-10T23:26:47.071Z,76.25
2022-09-10T23:29:17.798Z,76.40
2022-09-10T23:31:46.227Z,76.87
2022-09-10T23:34:16.919Z,76.68
2022-09-10T23:36:46.605Z,76.62
2022-09-10T23:39:20.328Z,76.73
2022-09-10T23:41:48.637Z,76.96
2022-09-10T23:44:16.092Z,76.47
2022-09-10T23:46:43.179Z,76.37
2022-09-10T23:49:09.991Z,76.49
2022-09-10T23:51:36.999Z,76.35
2022-09-10T23:54:04.063Z,76.63
2022-09-10T23:56:31.771Z,76.69
2022-09-10T23:58:59.443Z,76.64
